Time;durP1;ratioP1;P1;durP2;ratioP2;P2;SDS_P1;SDS_P2;PMS_P1;PMS_P2;Temp;Humidity;BMP_temperature;BMP_pressure;BME280_temperature;BME280_humidity;BME280_pressure;Samples;Min_cycle;Max_cycle;Signal;HPM_P1;HPM_P2
2021/01/18 00:00:07;;;;;;;37.97;17.37;;;;;;;-2.93;84.56;101649.41;5035170;28;20040;-65
2021/01/18 00:02:33;;;;;;;45.33;18.98;;;;;;;-2.94;84.38;101647.72;5034003;28;20280;-65
2021/01/18 00:04:58;;;;;;;40.92;18.58;;;;;;;-2.89;84.46;101648.41;5034931;28;20048;-65
2021/01/18 00:07:24;;;;;;;46.57;19.03;;;;;;;-2.93;84.44;101644.19;5017397;28;20182;-65
2021/01/18 00:09:49;;;;;;;41.20;17.80;;;;;;;-3.06;84.67;101636.78;5034954;28;20298;-65
2021/01/18 00:12:14;;;;;;;48.17;18.50;;;;;;;-2.94;84.44;101640.72;5035055;28;20033;-65
2021/01/18 00:14:39;;;;;;;44.17;18.87;;;;;;;-3.06;84.92;101642.00;5034803;28;20306;-65
2021/01/18 00:17:06;;;;;;;41.20;18.87;;;;;;;-2.99;84.76;101635.66;5034547;28;20406;-65
2021/01/18 00:19:31;;;;;;;46.10;19.65;;;;;;;-3.07;84.87;101636.81;5017204;28;20353;-65
2021/01/18 00:21:57;;;;;;;43.57;18.93;;;;;;;-3.07;85.08;101635.06;5034829;28;20037;-65
2021/01/18 00:24:22;;;;;;;46.75;19.77;;;;;;;-3.06;84.66;101634.16;5033924;28;20041;-65
2021/01/18 00:26:48;;;;;;;38.30;18.17;;;;;;;-3.00;85.01;101633.09;5034378;28;20033;-65
2021/01/18 00:29:13;;;;;;;41.97;18.02;;;;;;;-3.00;84.52;101628.75;5017083;28;20052;-65
2021/01/18 00:31:44;;;;;;;44.53;18.17;;;;;;;-2.93;84.41;101636.34;5017153;28;20091;-65
2021/01/18 00:34:09;;;;;;;43.35;19.48;;;;;;;-3.06;84.73;101622.88;5033545;28;20033;-65
2021/01/18 00:36:34;;;;;;;46.60;18.63;;;;;;;-2.95;84.48;101630.31;5016799;28;20088;-65
2021/01/18 00:39:00;;;;;;;34.43;17.80;;;;;;;-2.90;84.21;101625.78;5034303;28;20037;-65
2021/01/18 00:41:25;;;;;;;43.90;18.03;;;;;;;-2.81;84.11;101626.31;5034407;28;20353;-65
2021/01/18 00:43:50;;;;;;;39.13;18.47;;;;;;;-2.81;83.73;101618.47;5034325;28;20682;-65
2021/01/18 00:46:18;;;;;;;45.53;21.23;;;;;;;-2.88;84.02;101631.81;5034003;28;20688;-65
2021/01/18 00:48:43;;;;;;;48.97;19.15;;;;;;;-2.85;84.25;101626.50;5034241;28;20224;-65
2021/01/18 00:51:08;;;;;;;39.57;18.73;;;;;;;-2.88;84.19;101631.81;5033339;28;20425;-65
2021/01/18 00:53:34;;;;;;;41.72;18.70;;;;;;;-2.80;84.24;101629.78;5016823;28;20481;-65
2021/01/18 00:56:00;;;;;;;40.63;18.83;;;;;;;-2.76;83.83;101620.94;5032929;28;20037;-65
2021/01/18 00:58:33;;;;;;;48.33;20.95;;;;;;;-2.75;84.01;101625.25;5017541;28;20045;-65
2021/01/18 01:01:16;;;;;;;41.33;19.63;;;;;;;-2.69;83.85;101614.56;5032934;28;20037;-65
2021/01/18 01:03:44;;;;;;;49.17;20.80;;;;;;;-2.71;83.60;101613.78;5033085;28;20025;-65
2021/01/18 01:06:09;;;;;;;46.20;20.07;;;;;;;-2.67;83.68;101610.16;5032751;28;20048;-65
2021/01/18 01:08:35;;;;;;;47.78;21.20;;;;;;;-2.78;83.56;101604.44;5032966;28;20053;-65
2021/01/18 01:11:00;;;;;;;40.50;20.55;;;;;;;-2.80;83.85;101603.66;5032671;28;20038;-65
2021/01/18 01:13:26;;;;;;;44.30;19.47;;;;;;;-2.74;83.72;101600.78;5033908;28;20438;-65
2021/01/18 01:15:51;;;;;;;46.90;19.20;;;;;;;-2.65;83.49;101603.06;5033436;28;20337;-65
2021/01/18 01:18:16;;;;;;;41.17;18.80;;;;;;;-2.67;83.63;101604.03;5033728;28;20045;-65
2021/01/18 01:20:42;;;;;;;43.50;20.13;;;;;;;-2.72;83.46;101596.38;5033585;28;20037;-65
2021/01/18 01:23:07;;;;;;;45.27;20.60;;;;;;;-2.67;83.56;101604.91;5032998;28;20288;-65
2021/01/18 01:25:33;;;;;;;53.80;21.25;;;;;;;-2.69;83.83;101603.25;5033336;28;20425;-65
2021/01/18 01:27:58;;;;;;;47.05;19.38;;;;;;;-2.69;83.87;101601.50;5032488;28;20045;-65
2021/01/18 01:30:24;;;;;;;46.50;19.80;;;;;;;-2.73;83.93;101599.91;5032470;28;20037;-65
2021/01/18 01:32:52;;;;;;;48.15;21.60;;;;;;;-2.72;83.92;101596.38;5033441;28;20037;-65
2021/01/18 01:35:28;;;;;;;47.83;20.63;;;;;;;-2.71;83.85;101590.25;5032371;28;20040;-65
2021/01/18 01:37:55;;;;;;;48.92;20.13;;;;;;;-2.83;84.62;101593.31;5033120;28;20069;-65
2021/01/18 01:40:20;;;;;;;48.72;21.67;;;;;;;-2.73;84.29;101593.81;5033082;28;20048;-65
2021/01/18 01:42:46;;;;;;;58.95;23.08;;;;;;;-2.71;84.32;101592.00;5032206;28;20041;-65
2021/01/18 01:45:14;;;;;;;45.50;22.27;;;;;;;-2.71;84.29;101585.03;5033243;28;20041;-65
2021/01/18 01:47:41;;;;;;;48.40;21.50;;;;;;;-2.69;84.14;101585.81;5031855;28;20068;-65
2021/01/18 01:50:10;;;;;;;50.53;21.98;;;;;;;-2.67;84.07;101581.38;5033207;28;20389;-65
2021/01/18 01:52:39;;;;;;;47.72;22.33;;;;;;;-2.67;84.33;101581.38;5032126;28;20451;-65
2021/01/18 01:55:09;;;;;;;48.53;21.60;;;;;;;-2.75;84.56;101580.81;5033317;28;20375;-65
2021/01/18 01:57:35;;;;;;;48.35;22.63;;;;;;;-2.71;84.65;101577.19;5032749;28;20048;-65
2021/01/18 02:00:01;;;;;;;50.40;21.85;;;;;;;-2.62;84.36;101578.59;5033008;28;20033;-72
2021/01/18 02:02:26;;;;;;;47.67;21.13;;;;;;;-2.59;84.50;101579.31;5031988;28;20469;-73
2021/01/18 02:04:52;;;;;;;45.00;22.08;;;;;;;-2.63;84.42;101572.50;5032768;28;20044;-72
2021/01/18 02:07:21;;;;;;;53.40;23.58;;;;;;;-2.66;84.62;101574.38;5032420;28;20112;-72
2021/01/18 02:09:47;;;;;;;61.65;26.42;;;;;;;-2.72;84.90;101565.00;5031830;28;20098;-73
2021/01/18 02:12:12;;;;;;;59.85;25.33;;;;;;;-2.68;84.92;101571.81;5031787;28;20041;-72
2021/01/18 02:14:49;;;;;;;52.45;23.42;;;;;;;-2.65;84.55;101576.09;5032069;28;20045;-72
2021/01/18 02:17:23;;;;;;;51.65;23.13;;;;;;;-2.63;84.68;101572.50;5032317;28;20041;-73
2021/01/18 02:20:07;;;;;;;49.00;23.17;;;;;;;-2.75;85.09;101575.56;5031495;28;20140;-73
2021/01/18 02:22:59;;;;;;;49.92;22.88;;;;;;;-2.66;85.13;101579.63;5032624;28;20041;-72
2021/01/18 02:25:44;;;;;;;61.85;25.40;;;;;;;-2.57;85.01;101574.03;5031607;28;20200;-72
2021/01/18 02:28:46;;;;;;;53.67;23.95;;;;;;;-2.62;85.41;101574.22;5031238;28;20091;-73
2021/01/18 02:31:32;;;;;;;57.75;24.25;;;;;;;-2.64;85.41;101573.41;5031612;28;20033;-73
2021/01/18 02:34:16;;;;;;;59.38;24.10;;;;;;;-2.69;85.89;101575.34;5032260;28;20470;-73
2021/01/18 02:37:03;;;;;;;51.60;23.70;;;;;;;-2.66;86.12;101570.00;5014692;28;20041;-73
2021/01/18 02:39:43;;;;;;;65.93;25.73;;;;;;;-2.64;86.21;101572.56;5031241;28;20041;-73
2021/01/18 02:42:15;;;;;;;60.80;26.35;;;;;;;-2.72;86.67;101564.16;5032165;28;20029;-72
2021/01/18 02:44:41;;;;;;;66.40;27.92;;;;;;;-2.73;86.65;101559.84;5031817;28;20043;-73
2021/01/18 02:47:08;;;;;;;61.05;25.55;;;;;;;-2.64;86.99;101562.97;5030801;28;20076;-73
2021/01/18 02:49:34;;;;;;;61.33;26.17;;;;;;;-2.68;86.88;101563.97;5031098;28;20471;-72
2021/01/18 02:52:10;;;;;;;64.65;28.02;;;;;;;-2.66;86.89;101561.31;5031005;28;20105;-72
2021/01/18 02:54:35;;;;;;;;;;;;;;;-2.74;87.37;101555.50;5031508;28;20736;-72
2021/01/18 02:57:05;;;;;;;64.53;26.85;;;;;;;-2.69;87.45;101549.22;5031642;28;19947;-73
2021/01/18 02:59:31;;;;;;;66.60;28.17;;;;;;;-2.63;87.36;101559.41;5031638;28;20029;-72
2021/01/18 03:02:13;;;;;;;66.88;27.33;;;;;;;-2.61;87.56;101557.59;5031885;28;20056;-72
2021/01/18 03:05:02;;;;;;;68.22;29.00;;;;;;;-2.63;87.38;101563.81;5031661;28;20064;-72
2021/01/18 03:07:34;;;;;;;75.47;32.45;;;;;;;-2.63;87.57;101550.72;5031519;28;20522;-72
2021/01/18 03:10:08;;;;;;;68.22;28.15;;;;;;;-2.62;87.53;101561.16;5031569;28;20038;-72
2021/01/18 03:12:57;;;;;;;57.35;24.73;;;;;;;-2.56;87.70;101542.59;5030714;28;20425;-73
2021/01/18 03:15:27;;;;;;;71.18;31.65;;;;;;;-2.55;87.83;101543.47;5031581;28;20461;-72
2021/01/18 03:17:57;;;;;;;70.43;30.98;;;;;;;-2.65;87.81;101536.88;5030485;28;20547;-72
2021/01/18 03:20:24;;;;;;;69.07;29.80;;;;;;;-2.63;87.93;101542.91;5030398;28;20048;-72
2021/01/18 03:22:50;;;;;;;70.40;29.40;;;;;;;-2.61;88.16;101547.16;5031413;28;20100;-73
2021/01/18 03:25:15;;;;;;;74.50;30.23;;;;;;;-2.56;88.01;101545.22;5013147;28;20049;-72
2021/01/18 03:27:52;;;;;;;76.57;29.52;;;;;;;-2.55;88.08;101546.94;5030186;28;20045;-72
2021/01/18 03:30:21;;;;;;;69.13;28.90;;;;;;;-2.58;88.14;101549.63;5031358;28;20033;-73
2021/01/18 03:32:48;;;;;;;69.15;30.88;;;;;;;-2.52;88.14;101550.34;5031303;28;20033;-73
2021/01/18 03:35:14;;;;;;;71.90;31.83;;;;;;;-2.57;88.30;101543.50;5031311;28;20419;-72
2021/01/18 03:37:39;;;;;;;71.70;29.40;;;;;;;-2.59;88.42;101547.94;5031131;28;20138;-72
2021/01/18 03:40:06;;;;;;;77.40;31.23;;;;;;;-2.60;88.42;101543.66;5030323;28;20048;-72
2021/01/18 03:42:31;;;;;;;91.53;31.52;;;;;;;-2.62;88.71;101550.69;5031234;28;20045;-73
2021/01/18 03:44:56;;;;;;;82.33;33.50;;;;;;;-2.58;88.81;101549.63;5030306;28;20037;-72
2021/01/18 03:47:21;;;;;;;86.55;35.53;;;;;;;-2.53;88.53;101553.84;5030886;28;20072;-72
2021/01/18 03:49:48;;;;;;;85.30;35.10;;;;;;;-2.55;88.54;101544.31;5014093;28;20037;-72
2021/01/18 03:52:13;;;;;;;80.55;32.97;;;;;;;-2.55;88.94;101541.69;5030241;28;20049;-72
2021/01/18 03:54:38;;;;;;;75.47;32.72;;;;;;;-2.52;88.83;101548.56;5013847;28;20037;-73
2021/01/18 03:57:04;;;;;;;97.67;36.10;;;;;;;-2.53;88.84;101543.38;5030755;28;20379;-73
2021/01/18 03:59:29;;;;;;;86.72;33.63;;;;;;;-2.50;89.15;101544.13;5031120;28;20337;-73
2021/01/18 04:01:55;;;;;;;89.07;34.63;;;;;;;-2.51;89.31;101539.81;5030058;28;20049;-72
2021/01/18 04:04:20;;;;;;;96.80;36.80;;;;;;;-2.47;89.37;101545.78;5031169;28;20048;-73
2021/01/18 04:06:45;;;;;;;92.17;38.97;;;;;;;-2.48;89.47;101536.22;5030707;28;20288;-73
2021/01/18 04:09:11;;;;;;;93.03;37.00;;;;;;;-2.43;89.28;101535.13;5030955;28;20340;-72
2021/01/18 04:11:36;;;;;;;104.28;39.42;;;;;;;-2.42;89.37;101520.28;5030873;28;20099;-73
2021/01/18 04:14:02;;;;;;;96.20;38.72;;;;;;;-2.39;89.40;101514.94;5030091;28;20049;-72
2021/01/18 04:16:27;;;;;;;91.05;38.33;;;;;;;-2.34;89.48;101523.47;5029565;28;20113;-72
2021/01/18 04:18:52;;;;;;;96.90;37.33;;;;;;;-2.35;89.81;101522.59;5029927;28;20060;-72
2021/01/18 04:21:18;;;;;;;92.63;35.10;;;;;;;-2.28;89.73;101533.69;5030851;28;20276;-73
2021/01/18 04:23:44;;;;;;;100.22;36.03;;;;;;;-2.26;89.48;101518.78;5030070;28;20095;-72
2021/01/18 04:26:10;;;;;;;103.00;39.15;;;;;;;-2.23;89.47;101516.03;5029641;28;20030;-73
2021/01/18 04:28:35;;;;;;;;;;;;;;;-2.22;89.62;101511.66;5031262;28;20415;-73
2021/01/18 04:31:00;;;;;;;109.07;44.10;;;;;;;-2.22;89.58;101512.50;5030742;28;19924;-73
2021/01/18 04:33:26;;;;;;;105.47;40.03;;;;;;;-2.25;89.58;101510.00;5030798;28;20422;-73
2021/01/18 04:35:55;;;;;;;118.03;42.88;;;;;;;-2.24;89.65;101513.50;5030634;28;20037;-72
2021/01/18 04:38:20;;;;;;;108.30;42.28;;;;;;;-2.24;90.01;101510.88;5033044;28;20053;-73
2021/01/18 04:40:46;;;;;;;112.65;43.08;;;;;;;-2.19;89.88;101515.00;5034395;28;20049;-73
2021/01/18 04:43:15;;;;;;;119.47;42.75;;;;;;;-2.15;89.90;101506.13;5033424;28;20458;-73
2021/01/18 04:45:41;;;;;;;116.90;39.42;;;;;;;-2.14;90.12;101504.34;5033105;28;20041;-73
2021/01/18 04:48:07;;;;;;;123.45;43.83;;;;;;;-2.16;90.03;101496.56;5034199;28;20037;-72
2021/01/18 04:50:33;;;;;;;140.18;46.20;;;;;;;-2.19;90.45;101491.44;5033366;28;20164;-73
2021/01/18 04:53:07;;;;;;;124.43;44.55;;;;;;;-2.14;90.34;101507.81;5034087;28;20037;-73
2021/01/18 04:55:52;;;;;;;129.77;43.78;;;;;;;-2.08;90.54;101500.63;5033966;28;20432;-73
2021/01/18 04:58:19;;;;;;;145.63;51.20;;;;;;;-2.14;90.76;101499.13;5033780;28;20718;-72
2021/01/18 05:00:48;;;;;;;148.45;49.35;;;;;;;-2.11;90.96;101501.59;5033099;28;20045;-73
2021/01/18 05:03:22;;;;;;;144.52;49.65;;;;;;;-2.13;91.21;101498.22;5033125;28;20052;-72
2021/01/18 05:06:06;;;;;;;147.82;49.83;;;;;;;-2.08;91.42;101496.25;5033615;28;20537;-73
2021/01/18 05:08:50;;;;;;;160.63;50.35;;;;;;;-2.04;91.43;101502.19;5032822;28;20029;-73
2021/01/18 05:11:16;;;;;;;154.02;49.90;;;;;;;-2.04;91.38;101496.97;5034013;28;20045;-73
2021/01/18 05:13:45;;;;;;;154.98;51.30;;;;;;;-2.00;91.55;101502.00;5033883;28;20049;-73
2021/01/18 05:16:11;;;;;;;177.88;56.72;;;;;;;-2.03;91.74;101502.16;5032559;28;20538;-72
2021/01/18 05:18:40;;;;;;;184.85;54.00;;;;;;;-2.01;91.71;101497.72;5033730;28;20049;-72
2021/01/18 05:21:06;;;;;;;177.07;51.50;;;;;;;-1.99;91.61;101495.00;5032543;28;20042;-73
2021/01/18 05:23:39;;;;;;;195.27;56.25;;;;;;;-1.98;91.72;101494.09;5016049;28;20395;-73
2021/01/18 05:26:25;;;;;;;189.57;52.10;;;;;;;-1.94;91.62;101493.91;5033311;28;20053;-73
2021/01/18 05:28:54;;;;;;;186.82;55.38;;;;;;;-1.96;91.85;101492.28;5032512;28;20060;-73
2021/01/18 05:31:25;;;;;;;216.27;56.22;;;;;;;-1.98;91.72;101496.72;5033464;28;20108;-72
2021/01/18 05:33:51;;;;;;;202.90;61.28;;;;;;;-2.03;92.29;101486.44;5032417;28;20047;-73
2021/01/18 05:36:40;;;;;;;300.63;61.80;;;;;;;-2.00;92.21;101485.47;5032036;28;20037;-73
2021/01/18 05:39:16;;;;;;;217.48;58.80;;;;;;;-1.99;92.39;101482.78;5033241;28;20048;-73
2021/01/18 05:41:43;;;;;;;252.43;62.22;;;;;;;-1.98;92.30;101483.63;5032471;28;20072;-73
2021/01/18 05:44:09;;;;;;;326.65;68.32;;;;;;;-2.00;92.58;101480.22;5033290;28;20091;-73
2021/01/18 05:46:36;;;;;;;282.92;64.55;;;;;;;-1.94;92.67;101485.22;5032916;28;20051;-73
2021/01/18 05:49:14;;;;;;;257.63;60.80;;;;;;;-1.94;92.76;101474.75;5014900;28;20518;-73
2021/01/18 05:51:40;;;;;;;336.80;76.25;;;;;;;-1.97;92.82;101478.34;5033088;28;20041;-72
2021/01/18 05:54:10;;;;;;;335.17;72.82;;;;;;;-1.96;92.95;101472.19;5033048;28;20069;-73
2021/01/18 05:56:38;;;;;;;438.85;78.57;;;;;;;-1.95;92.93;101459.94;5031609;28;20041;-73
2021/01/18 05:59:23;;;;;;;307.77;66.55;;;;;;;-1.95;93.11;101462.56;5032032;28;20049;-73
2021/01/18 06:01:52;;;;;;;290.40;58.78;;;;;;;-1.94;93.15;101464.28;5032775;28;20072;-72
2021/01/18 06:04:19;;;;;;;387.20;73.47;;;;;;;-1.94;93.28;101465.13;5032818;28;20450;-73
2021/01/18 06:06:56;;;;;;;359.05;76.45;;;;;;;-1.95;93.51;101473.03;5032293;28;20048;-73
2021/01/18 06:09:24;;;;;;;359.23;74.93;;;;;;;-1.92;93.50;101481.63;5031817;28;20041;-73
2021/01/18 06:11:49;;;;;;;343.58;75.65;;;;;;;-1.91;93.55;101482.47;5031759;28;20375;-72
2021/01/18 06:14:17;;;;;;;280.73;69.63;;;;;;;-1.90;93.51;101478.91;5032753;28;20102;-73
2021/01/18 06:16:47;;;;;;;362.08;77.95;;;;;;;-1.88;93.64;101486.72;5031274;28;20041;-73
2021/01/18 06:19:21;;;;;;;284.33;69.55;;;;;;;-1.84;93.58;101483.91;5032528;28;20128;-72
2021/01/18 06:21:47;;;;;;;264.17;64.53;;;;;;;-1.82;93.52;101474.22;5014750;28;20052;-73
2021/01/18 06:24:20;;;;;;;270.40;65.57;;;;;;;-1.80;93.75;101472.41;5031940;28;20033;-73
2021/01/18 06:26:46;;;;;;;348.85;67.18;;;;;;;-1.77;93.78;101476.66;5030806;28;20442;-73
2021/01/18 06:29:41;;;;;;;353.05;73.60;;;;;;;-1.73;93.80;101478.22;5030905;28;20084;-73
2021/01/18 06:32:08;;;;;;;294.60;69.18;;;;;;;-1.73;93.78;101479.06;5031036;28;20041;-73
2021/01/18 06:34:34;;;;;;;286.02;63.40;;;;;;;-1.66;94.00;101489.25;5031269;28;20036;-73
2021/01/18 06:36:59;;;;;;;267.88;63.90;;;;;;;-1.63;93.67;101471.66;5031786;28;20109;-73
2021/01/18 06:39:29;;;;;;;461.70;80.80;;;;;;;-1.64;93.66;101477.84;5031032;28;20072;-72
2021/01/18 06:42:00;;;;;;;358.30;71.18;;;;;;;-1.63;93.69;101479.53;5014730;28;20041;-73
2021/01/18 06:44:34;;;;;;;372.77;70.82;;;;;;;-1.64;93.89;101477.84;5030981;28;20072;-73
2021/01/18 06:46:59;;;;;;;322.65;71.32;;;;;;;-1.65;94.22;101475.28;5031841;28;20439;-72
2021/01/18 06:49:26;;;;;;;365.20;73.93;;;;;;;-1.61;94.04;101477.69;5032068;28;20044;-72
2021/01/18 06:51:56;;;;;;;396.15;77.55;;;;;;;-1.58;94.04;101481.94;5031026;28;20295;-72
2021/01/18 06:54:27;;;;;;;349.88;67.10;;;;;;;-1.56;94.05;101482.72;5031377;28;20145;-72
2021/01/18 06:57:12;;;;;;;295.98;68.20;;;;;;;-1.55;94.68;101481.81;5013549;28;20069;-72
2021/01/18 06:59:52;;;;;;;476.63;81.70;;;;;;;-1.52;94.03;101486.94;5030140;28;20103;-72
2021/01/18 07:02:20;;;;;;;331.42;74.25;;;;;;;-1.49;94.12;101485.00;5031217;28;20364;-72
2021/01/18 07:04:47;;;;;;;302.75;71.07;;;;;;;-1.46;94.14;101481.41;5030143;28;20110;-72
2021/01/18 07:07:31;;;;;;;232.32;66.32;;;;;;;-1.42;94.16;101472.50;5029856;28;20034;-72
2021/01/18 07:09:59;;;;;;;381.77;73.57;;;;;;;-1.40;94.15;101481.16;5030600;28;20083;-72
2021/01/18 07:12:26;;;;;;;255.00;58.78;;;;;;;-1.37;94.40;101485.41;5030569;28;20045;-72
2021/01/18 07:14:59;;;;;;;248.95;59.78;;;;;;;-1.35;94.31;101480.94;5031465;28;20029;-72
2021/01/18 07:17:53;;;;;;;234.55;59.33;;;;;;;-1.33;94.31;101479.09;5030858;28;20048;-72
2021/01/18 07:20:26;;;;;;;279.20;70.70;;;;;;;-1.31;94.51;101490.38;5030223;28;20041;-72
2021/01/18 07:23:06;;;;;;;248.05;63.17;;;;;;;-1.27;94.30;101482.28;5031410;28;20057;-72
2021/01/18 07:25:40;;;;;;;261.33;62.72;;;;;;;-1.29;94.29;101476.28;5031172;28;20064;-72
2021/01/18 07:28:07;;;;;;;240.50;58.60;;;;;;;-1.21;94.23;101482.94;5031173;28;20037;-71
2021/01/18 07:30:33;;;;;;;221.55;57.58;;;;;;;-1.21;94.33;101477.72;5030214;28;20435;-72
2021/01/18 07:33:09;;;;;;;;;;;;;;;-1.21;94.22;101472.47;5031907;28;20397;-72
2021/01/18 07:35:35;;;;;;;;;;;;;;;-1.17;94.35;101481.88;5031268;28;20035;-72
2021/01/18 07:38:12;;;;;;;272.33;57.83;;;;;;;-1.18;94.25;101480.19;5030087;28;20019;-72
2021/01/18 07:40:39;;;;;;;206.98;54.25;;;;;;;-1.15;94.19;101477.41;5029830;28;20160;-72
2021/01/18 07:43:04;;;;;;;;;;;;;;;-1.12;94.35;101479.91;5030717;28;20045;-71
2021/01/18 07:45:30;;;;;;;194.25;51.42;;;;;;;-1.10;94.38;101480.66;5029901;28;19913;-72
2021/01/18 07:48:00;;;;;;;197.53;52.17;;;;;;;-1.09;94.40;101475.38;5031070;28;20518;-71
2021/01/18 07:50:36;;;;;;;180.43;49.10;;;;;;;-0.98;94.44;101476.66;5030048;28;20378;-71
2021/01/18 07:53:10;;;;;;;177.35;48.95;;;;;;;-0.97;94.38;101473.97;5031129;28;20128;-71
2021/01/18 07:55:36;;;;;;;168.48;48.80;;;;;;;-0.96;94.16;101472.19;5013414;28;20064;-71
2021/01/18 07:58:18;;;;;;;171.32;48.35;;;;;;;-0.93;93.96;101467.66;5029242;28;20098;-72
2021/01/18 08:01:07;;;;;;;173.15;49.08;;;;;;;-0.93;94.06;101462.41;5030733;28;20037;-72
2021/01/18 08:03:32;;;;;;;161.88;46.70;;;;;;;-0.90;94.16;101464.88;5029378;28;20374;-72
2021/01/18 08:06:04;;;;;;;157.77;44.25;;;;;;;-0.83;94.09;101464.63;5029151;28;20029;-72
2021/01/18 08:08:29;;;;;;;172.70;43.28;;;;;;;-0.83;93.92;101465.47;5030329;28;20037;-72
2021/01/18 08:11:05;;;;;;;176.27;46.57;;;;;;;-0.79;93.92;101460.94;5029375;28;20106;-72
2021/01/18 08:13:47;;;;;;;164.80;44.45;;;;;;;-0.75;93.91;101459.84;5033333;28;20433;-72
2021/01/18 08:16:24;;;;;;;152.32;42.88;;;;;;;-0.75;93.99;101463.34;5034097;28;20069;-72
2021/01/18 08:18:51;;;;;;;158.43;43.13;;;;;;;-0.76;93.95;101455.53;5033479;28;20041;-72
2021/01/18 08:21:34;;;;;;;151.40;40.47;;;;;;;-0.71;93.83;101457.00;5034199;28;20041;-72
2021/01/18 08:24:04;;;;;;;160.48;40.10;;;;;;;-0.73;93.88;101452.75;5034291;28;20045;-71
2021/01/18 08:27:01;;;;;;;152.13;41.47;;;;;;;-0.71;94.04;101448.28;5033796;28;20087;-71
2021/01/18 08:29:34;;;;;;;127.28;38.80;;;;;;;-0.71;93.95;101450.91;5033271;28;20070;-71
2021/01/18 08:32:33;;;;;;;142.65;39.45;;;;;;;-0.70;93.97;101439.53;5033240;28;20041;-71
2021/01/18 08:35:00;;;;;;;160.00;39.72;;;;;;;-0.68;94.04;101442.91;5032937;28;20095;-71
2021/01/18 08:37:27;;;;;;;133.35;39.55;;;;;;;-0.61;93.97;101440.84;5033757;28;20053;-71
2021/01/18 08:39:58;;;;;;;158.20;45.55;;;;;;;-0.57;93.89;101440.63;5033975;28;20037;-71
2021/01/18 08:42:32;;;;;;;112.82;36.33;;;;;;;-0.48;93.96;101441.94;5033845;28;20056;-71
2021/01/18 08:45:00;;;;;;;128.38;34.10;;;;;;;-0.51;93.91;101423.75;5032982;28;20077;-71
2021/01/18 08:47:45;;;;;;;116.75;32.28;;;;;;;-0.43;94.10;101434.69;5032825;28;20394;-71
2021/01/18 08:50:15;;;;;;;108.97;31.13;;;;;;;-0.36;93.89;101422.13;5016799;28;20060;-71
2021/01/18 08:52:42;;;;;;;107.20;28.08;;;;;;;-0.35;94.04;101418.56;5033080;28;20156;-71
2021/01/18 08:55:36;;;;;;;97.30;25.80;;;;;;;-0.25;94.10;101427.72;5034122;28;20037;-71
2021/01/18 08:58:05;;;;;;;73.78;25.73;;;;;;;-0.21;93.87;101426.63;5032843;28;20391;-71
2021/01/18 09:00:38;;;;;;;91.13;25.27;;;;;;;-0.12;93.91;101426.16;5032643;28;20394;-71
2021/01/18 09:03:04;;;;;;;97.22;24.20;;;;;;;-0.10;93.96;101413.81;5016047;28;20037;-72
2021/01/18 09:05:29;;;;;;;75.57;22.77;;;;;;;-0.05;94.11;101417.06;5033190;28;20033;-71
2021/01/18 09:07:55;;;;;;;88.00;23.67;;;;;;;-0.06;93.83;101420.59;5033183;28;20057;-71
2021/01/18 09:10:22;;;;;;;146.95;27.83;;;;;;;-0.13;93.77;101419.22;5032410;28;20099;-72
2021/01/18 09:12:49;;;;;;;85.82;21.98;;;;;;;-0.13;93.73;101427.09;5033174;28;20037;-71
2021/01/18 09:15:16;;;;;;;93.90;25.50;;;;;;;-0.12;93.98;101430.56;5032399;28;20038;-71
2021/01/18 09:17:42;;;;;;;107.15;23.30;;;;;;;-0.15;94.16;101412.34;5032166;28;20029;-71
2021/01/18 09:20:09;;;;;;;112.07;24.87;;;;;;;-0.12;94.08;101414.81;5033120;28;20040;-71
2021/01/18 09:22:43;;;;;;;121.15;25.27;;;;;;;-0.09;94.14;101414.69;5031548;28;20037;-72
2021/01/18 09:25:11;;;;;;;112.05;23.92;;;;;;;-0.07;94.24;101410.16;5032525;28;20040;-71
2021/01/18 09:27:37;;;;;;;89.88;22.17;;;;;;;-0.04;94.21;101408.25;5015326;28;20041;-71
2021/01/18 09:30:08;;;;;;;107.80;24.27;;;;;;;0.10;94.25;101407.56;5032016;28;20120;-71
2021/01/18 09:32:35;;;;;;;86.55;21.88;;;;;;;0.04;94.35;101409.63;5031327;28;20033;-71
2021/01/18 09:35:06;;;;;;;105.15;27.65;;;;;;;0.07;94.23;101404.22;5032555;28;20045;-71
2021/01/18 09:37:32;;;;;;;95.90;22.67;;;;;;;0.09;94.20;101407.63;5032370;28;20037;-72
2021/01/18 09:39:57;;;;;;;71.55;21.85;;;;;;;0.19;94.52;101403.59;5032895;28;20041;-71
2021/01/18 09:42:25;;;;;;;85.07;24.13;;;;;;;0.10;94.44;101396.22;5031735;28;20033;-72
2021/01/18 09:44:51;;;;;;;77.00;21.85;;;;;;;0.13;94.46;101401.28;5015074;28;20387;-72
2021/01/18 09:47:17;;;;;;;85.07;22.58;;;;;;;0.16;94.27;101402.00;5031364;28;20033;-72
2021/01/18 09:49:43;;;;;;;81.53;21.98;;;;;;;0.19;94.46;101399.19;5014539;28;20115;-72
2021/01/18 09:52:08;;;;;;;101.13;25.13;;;;;;;0.20;94.32;101400.88;5032444;28;20060;-72
2021/01/18 09:54:38;;;;;;;85.70;23.20;;;;;;;0.23;94.38;101394.63;5031305;28;20041;-72
2021/01/18 09:57:10;;;;;;;77.60;23.73;;;;;;;0.25;94.45;101400.66;5031255;28;20041;-72
2021/01/18 09:59:40;;;;;;;84.57;21.83;;;;;;;0.25;94.38;101392.75;5031249;28;20546;-72
2021/01/18 10:02:10;;;;;;;70.57;21.50;;;;;;;0.30;94.42;101393.38;5032490;28;20439;-72
2021/01/18 10:04:36;;;;;;;77.15;23.38;;;;;;;0.36;94.50;101395.69;5031286;28;20454;-71
2021/01/18 10:07:08;;;;;;;76.40;22.70;;;;;;;0.37;94.41;101388.66;5032168;28;20037;-71
2021/01/18 10:09:34;;;;;;;72.93;22.92;;;;;;;0.43;94.28;101374.34;5032319;28;20359;-72
2021/01/18 10:12:00;;;;;;;65.43;20.13;;;;;;;0.43;94.39;101379.59;5032280;28;20033;-71
2021/01/18 10:14:28;;;;;;;67.75;21.50;;;;;;;0.48;94.32;101377.56;5032201;28;20033;-71
2021/01/18 10:17:08;;;;;;;64.30;22.23;;;;;;;0.45;94.30;101375.13;5031648;28;20351;-71
2021/01/18 10:19:36;;;;;;;62.35;20.92;;;;;;;0.46;94.32;101376.81;5014375;28;20092;-71
2021/01/18 10:22:04;;;;;;;77.82;21.45;;;;;;;0.47;94.34;101370.59;5031028;28;20041;-72
2021/01/18 10:24:31;;;;;;;75.00;23.67;;;;;;;0.44;94.31;101365.53;5031253;28;20037;-71
2021/01/18 10:27:10;;;;;;;79.60;23.00;;;;;;;0.43;94.41;101361.22;5030570;28;20587;-71
2021/01/18 10:29:35;;;;;;;79.25;23.10;;;;;;;0.47;94.32;101362.72;5030731;28;20034;-71
2021/01/18 10:32:03;;;;;;;83.68;23.83;;;;;;;0.50;94.22;101349.44;5031989;28;20030;-72
2021/01/18 10:34:29;;;;;;;60.78;19.88;;;;;;;0.52;94.37;101358.09;5030305;28;20044;-71
2021/01/18 10:37:17;;;;;;;63.55;20.95;;;;;;;0.55;94.26;101345.63;5031471;28;20521;-71
2021/01/18 10:39:44;;;;;;;66.65;21.83;;;;;;;0.57;94.31;101345.56;5031916;28;20042;-71
2021/01/18 10:42:17;;;;;;;65.68;22.60;;;;;;;0.58;94.28;101339.34;5032014;28;20370;-71
2021/01/18 10:44:52;;;;;;;54.80;21.92;;;;;;;0.64;94.15;101333.78;5030746;28;20037;-71
2021/01/18 10:47:21;;;;;;;58.50;20.48;;;;;;;0.66;93.97;101326.66;5030260;28;20049;-71
2021/01/18 10:49:53;;;;;;;55.45;18.92;;;;;;;0.65;94.24;101322.31;5031543;28;20439;-71
2021/01/18 10:52:19;;;;;;;57.92;21.10;;;;;;;0.69;94.10;101307.25;5030163;28;20030;-71
2021/01/18 10:54:58;;;;;;;53.28;18.30;;;;;;;0.73;94.01;101303.50;5030434;28;20038;-71
2021/01/18 10:57:24;;;;;;;47.30;16.33;;;;;;;0.76;94.00;101305.97;5031018;28;20112;-71
2021/01/18 11:00:09;;;;;;;47.10;19.38;;;;;;;0.77;93.91;101300.63;5031312;28;20519;-72
2021/01/18 11:02:36;;;;;;;41.92;15.75;;;;;;;0.79;93.74;101301.38;5030512;28;20175;-72
2021/01/18 11:05:01;;;;;;;53.17;18.00;;;;;;;0.77;93.67;101295.38;5031169;28;20041;-71
2021/01/18 11:07:27;;;;;;;57.65;17.95;;;;;;;0.79;93.59;101290.84;5030809;28;20037;-71
2021/01/18 11:10:00;;;;;;;48.75;16.08;;;;;;;0.85;93.74;101289.69;5031207;28;20362;-72
2021/01/18 11:12:41;;;;;;;47.58;15.82;;;;;;;0.89;93.79;101285.06;5031178;28;20140;-71
2021/01/18 11:15:09;;;;;;;41.90;16.25;;;;;;;0.90;93.69;101282.38;5030157;28;20453;-71
2021/01/18 11:17:34;;;;;;;52.88;17.33;;;;;;;0.95;93.44;101285.59;5029840;28;20045;-71
2021/01/18 11:20:00;;;;;;;60.03;17.73;;;;;;;0.99;93.63;101275.75;5031113;28;20124;-71
2021/01/18 11:22:25;;;;;;;44.37;14.37;;;;;;;1.00;93.47;101272.16;5031456;28;20462;-71